createdAt,value
2022-10-18T00:00:06.660Z,14.93
2022-10-18T00:01:06.703Z,14.94
2022-10-18T00:02:06.886Z,14.94
2022-10-18T00:03:06.869Z,14.95
2022-10-18T00:04:06.987Z,14.98
2022-10-18T00:05:07.762Z,14.98
2022-10-18T00:06:07.143Z,14.98
2022-10-18T00:07:07.177Z,14.98
2022-10-18T00:08:07.239Z,14.99
2022-10-18T00:09:07.335Z,15.01
2022-10-18T00:10:07.380Z,14.99
2022-10-18T00:11:07.732Z,14.98
2022-10-18T00:12:07.774Z,14.95
2022-10-18T00:13:07.671Z,14.95
2022-10-18T00:14:07.828Z,14.94
2022-10-18T00:15:07.827Z,14.94
2022-10-18T00:16:07.930Z,14.93
2022-10-18T00:17:08.068Z,14.94
2022-10-18T00:18:09.311Z,14.93
2022-10-18T00:19:08.223Z,14.93
2022-10-18T00:20:08.276Z,14.93
2022-10-18T00:21:08.352Z,14.94
2022-10-18T00:22:08.439Z,14.94
2022-10-18T00:23:08.511Z,14.95
2022-10-18T00:24:12.640Z,14.98
2022-10-18T00:25:08.718Z,14.98
2022-10-18T00:26:08.819Z,14.98
2022-10-18T00:27:08.913Z,14.98
2022-10-18T00:28:08.989Z,14.99
2022-10-18T00:29:09.082Z,14.95
2022-10-18T00:30:09.160Z,14.95
2022-10-18T00:31:09.279Z,14.95
2022-10-18T00:32:09.325Z,14.95
2022-10-18T00:33:09.407Z,14.95
2022-10-18T00:34:09.537Z,14.98
2022-10-18T00:35:09.582Z,14.95
2022-10-18T00:36:09.653Z,14.95
2022-10-18T00:37:11.021Z,14.98
2022-10-18T00:38:09.875Z,14.98
2022-10-18T00:39:09.961Z,14.98
2022-10-18T00:40:10.054Z,14.95
2022-10-18T00:41:10.133Z,14.98
2022-10-18T00:42:10.224Z,14.98
2022-10-18T00:43:10.564Z,14.98
2022-10-18T00:44:10.496Z,14.99
2022-10-18T00:45:10.518Z,14.99
2022-10-18T00:46:10.596Z,14.98
2022-10-18T00:47:10.680Z,14.99
2022-10-18T00:48:10.776Z,14.98
2022-10-18T00:49:10.888Z,14.98
2022-10-18T00:50:12.521Z,14.98
2022-10-18T00:51:11.018Z,14.98
2022-10-18T00:52:11.059Z,14.95
2022-10-18T00:53:11.132Z,14.95
2022-10-18T00:54:11.239Z,14.94
2022-10-18T00:55:11.296Z,14.95
2022-10-18T00:56:11.442Z,14.94
2022-10-18T00:57:12.568Z,14.94
2022-10-18T00:58:11.521Z,14.98
2022-10-18T00:59:11.601Z,14.98
2022-10-18T01:00:11.685Z,14.98
2022-10-18T01:01:11.805Z,14.98
2022-10-18T01:02:11.940Z,14.99
2022-10-18T01:03:11.941Z,14.98
2022-10-18T01:04:12.043Z,14.98
2022-10-18T01:05:12.096Z,14.98
2022-10-18T01:06:12.186Z,14.98
2022-10-18T01:07:12.267Z,14.98
2022-10-18T01:08:12.439Z,14.95
2022-10-18T01:09:13.124Z,14.98
2022-10-18T01:10:12.520Z,14.98
2022-10-18T01:11:12.597Z,14.94
2022-10-18T01:12:12.678Z,14.98
2022-10-18T01:13:12.747Z,14.95
2022-10-18T01:14:12.893Z,14.95
2022-10-18T01:15:12.930Z,14.94
2022-10-18T01:16:13.078Z,14.91
2022-10-18T01:17:13.153Z,14.91
2022-10-18T01:18:13.196Z,14.90
2022-10-18T01:19:13.293Z,14.88
2022-10-18T01:20:13.351Z,14.88
2022-10-18T01:21:16.000Z,14.88
2022-10-18T01:22:14.349Z,14.87
2022-10-18T01:23:14.671Z,14.87
2022-10-18T01:24:14.510Z,14.86
2022-10-18T01:25:13.901Z,14.87
2022-10-18T01:26:13.935Z,14.87
2022-10-18T01:27:13.960Z,14.87
2022-10-18T01:28:14.047Z,14.88
2022-10-18T01:29:14.138Z,14.87
2022-10-18T01:30:14.281Z,14.90
2022-10-18T01:31:14.289Z,14.88
2022-10-18T01:32:14.665Z,14.88
2022-10-18T01:33:14.469Z,14.90
2022-10-18T01:34:14.584Z,14.90
2022-10-18T01:35:14.629Z,14.90
2022-10-18T01:36:14.776Z,14.91
2022-10-18T01:37:15.737Z,14.90
2022-10-18T01:38:15.901Z,14.91
2022-10-18T01:39:14.996Z,14.91
2022-10-18T01:40:15.041Z,14.88
2022-10-18T01:41:15.941Z,14.91
2022-10-18T01:42:15.184Z,14.91
2022-10-18T01:43:15.270Z,14.90
2022-10-18T01:44:15.367Z,14.91
2022-10-18T01:45:15.406Z,14.90
2022-10-18T01:46:15.476Z,14.88
2022-10-18T01:47:15.550Z,14.90
2022-10-18T01:48:15.652Z,14.88
2022-10-18T01:49:15.704Z,14.90
2022-10-18T01:50:15.817Z,14.90
2022-10-18T01:51:17.186Z,14.88
2022-10-18T01:52:15.941Z,14.87
2022-10-18T01:53:16.012Z,14.87
2022-10-18T01:54:16.117Z,14.86
2022-10-18T01:55:16.192Z,14.83
2022-10-18T01:56:17.098Z,14.83
2022-10-18T01:57:16.359Z,14.80
2022-10-18T01:58:16.472Z,14.78
2022-10-18T01:59:16.648Z,14.74
2022-10-18T02:00:16.646Z,14.74
2022-10-18T02:01:16.698Z,14.72
2022-10-18T02:02:16.785Z,14.72
2022-10-18T02:03:17.640Z,14.71
2022-10-18T02:04:17.031Z,14.68
2022-10-18T02:05:17.052Z,14.68
2022-10-18T02:06:17.136Z,14.67
2022-10-18T02:07:17.232Z,14.65
2022-10-18T02:08:24.246Z,14.62
2022-10-18T02:09:19.108Z,14.64
2022-10-18T02:10:18.444Z,14.61
2022-10-18T02:11:17.541Z,14.60
2022-10-18T02:12:17.628Z,14.62
2022-10-18T02:13:17.730Z,14.61
2022-10-18T02:14:17.807Z,14.62
2022-10-18T02:15:18.973Z,14.61
2022-10-18T02:16:17.961Z,14.62
2022-10-18T02:17:18.186Z,14.60
2022-10-18T02:18:18.118Z,14.62
2022-10-18T02:19:18.235Z,14.64
2022-10-18T02:20:18.269Z,14.64
2022-10-18T02:21:18.329Z,14.62
2022-10-18T02:22:20.083Z,14.65
2022-10-18T02:23:18.593Z,14.65
2022-10-18T02:24:18.621Z,14.67
2022-10-18T02:25:18.675Z,14.67
2022-10-18T02:26:18.721Z,14.67
2022-10-18T02:27:18.861Z,14.65
2022-10-18T02:28:19.662Z,14.65
2022-10-18T02:29:19.798Z,14.67
2022-10-18T02:30:19.287Z,14.67
2022-10-18T02:31:19.160Z,14.67
2022-10-18T02:32:19.240Z,14.67
2022-10-18T02:33:19.307Z,14.67
2022-10-18T02:34:19.388Z,14.68
2022-10-18T02:35:24.563Z,14.67
2022-10-18T02:36:19.646Z,14.67
2022-10-18T02:37:19.628Z,14.65
2022-10-18T02:38:19.655Z,14.65
2022-10-18T02:39:19.781Z,14.67
2022-10-18T02:40:19.883Z,14.65
2022-10-18T02:41:22.643Z,14.65
2022-10-18T02:42:21.963Z,14.64
2022-10-18T02:43:20.127Z,14.64
2022-10-18T02:44:20.240Z,14.64
2022-10-18T02:45:20.304Z,14.62
2022-10-18T02:46:20.358Z,14.61
2022-10-18T02:47:20.449Z,14.61
2022-10-18T02:48:20.508Z,14.61
2022-10-18T02:49:21.180Z,14.60
2022-10-18T02:50:20.662Z,14.57
2022-10-18T02:51:20.711Z,14.56
2022-10-18T02:52:20.791Z,14.54
2022-10-18T02:53:20.885Z,14.53
2022-10-18T02:54:20.973Z,14.52
2022-10-18T02:55:21.174Z,14.52
2022-10-18T02:56:21.140Z,14.50
2022-10-18T02:57:21.320Z,14.50
2022-10-18T02:58:22.365Z,14.49
2022-10-18T02:59:22.300Z,14.47
2022-10-18T03:00:21.500Z,14.47
2022-10-18T03:01:21.587Z,14.46
2022-10-18T03:02:21.638Z,14.46
2022-10-18T03:03:21.895Z,14.43
2022-10-18T03:04:22.059Z,14.44
2022-10-18T03:05:31.963Z,14.43
2022-10-18T03:06:21.985Z,14.39
2022-10-18T03:07:22.055Z,14.37
2022-10-18T03:08:22.192Z,14.35
2022-10-18T03:09:22.354Z,14.35
2022-10-18T03:10:22.311Z,14.37
2022-10-18T03:11:22.453Z,14.37
2022-10-18T03:12:22.515Z,14.35
2022-10-18T03:13:22.586Z,14.38
2022-10-18T03:18:45.034Z,14.07
2022-10-18T03:19:46.106Z,14.04
2022-10-18T03:20:46.173Z,14.04
2022-10-18T03:21:46.249Z,14.06
2022-10-18T03:22:46.291Z,14.10
2022-10-18T03:23:46.593Z,14.13
2022-10-18T03:24:46.495Z,14.17
2022-10-18T03:25:46.607Z,14.20
2022-10-18T03:26:46.704Z,14.21
2022-10-18T03:27:46.758Z,14.24
2022-10-18T03:28:46.875Z,14.27
2022-10-18T03:29:46.872Z,14.29
2022-10-18T03:30:46.958Z,14.31
2022-10-18T03:31:47.074Z,14.32
2022-10-18T03:32:47.129Z,14.34
2022-10-18T03:33:47.208Z,14.35
2022-10-18T03:34:47.313Z,14.35
2022-10-18T03:35:47.391Z,14.38
2022-10-18T03:36:47.483Z,14.39
2022-10-18T03:37:47.588Z,14.42
2022-10-18T03:38:47.627Z,14.42
2022-10-18T03:39:47.712Z,14.42
2022-10-18T03:40:47.790Z,14.39
2022-10-18T03:41:47.885Z,14.38
2022-10-18T03:42:47.983Z,14.35
2022-10-18T03:43:48.837Z,14.35
2022-10-18T03:44:48.147Z,14.32
2022-10-18T03:45:48.225Z,14.31
2022-10-18T03:46:48.339Z,14.31
2022-10-18T03:47:48.377Z,14.31
2022-10-18T03:48:48.457Z,14.31
2022-10-18T03:49:50.957Z,14.29
2022-10-18T03:50:48.631Z,14.29
2022-10-18T03:51:48.748Z,14.32
2022-10-18T03:52:48.785Z,14.31
2022-10-18T03:53:48.880Z,14.32
2022-10-18T03:54:48.963Z,14.32
2022-10-18T03:55:49.095Z,14.32
2022-10-18T03:56:49.156Z,14.34
2022-10-18T03:57:49.216Z,14.35
2022-10-18T03:58:49.312Z,14.37
2022-10-18T03:59:49.383Z,14.35
2022-10-18T04:00:49.486Z,14.37
2022-10-18T04:01:49.632Z,14.35
2022-10-18T04:02:52.086Z,14.38
2022-10-18T04:03:49.753Z,14.37
2022-10-18T04:04:49.860Z,14.37
2022-10-18T04:05:49.938Z,14.37
2022-10-18T04:06:50.051Z,14.37
2022-10-18T04:07:50.124Z,14.38
2022-10-18T04:08:50.195Z,14.38
2022-10-18T04:09:50.296Z,14.38
2022-10-18T04:10:50.372Z,14.38
2022-10-18T04:11:50.489Z,14.42
2022-10-18T04:12:50.533Z,14.39
2022-10-18T04:13:50.624Z,14.39
2022-10-18T04:14:50.709Z,14.39
2022-10-18T04:15:50.834Z,14.39
2022-10-18T04:16:50.884Z,14.43
2022-10-18T04:17:50.973Z,14.42
2022-10-18T04:18:51.096Z,14.43
2022-10-18T04:19:51.138Z,14.43
2022-10-18T04:20:51.215Z,14.43
2022-10-18T04:21:51.350Z,14.43
2022-10-18T04:22:51.394Z,14.44
2022-10-18T04:23:51.468Z,14.46
2022-10-18T04:24:51.560Z,14.46
2022-10-18T04:25:52.564Z,14.47
2022-10-18T04:26:51.790Z,14.47
2022-10-18T04:27:51.828Z,14.47
2022-10-18T04:28:52.069Z,14.47
2022-10-18T04:29:51.984Z,14.50
2022-10-18T04:30:52.054Z,14.49
2022-10-18T04:31:52.112Z,14.49
2022-10-18T04:32:52.193Z,14.50
2022-10-18T04:33:52.330Z,14.50
2022-10-18T04:34:52.371Z,14.50
2022-10-18T04:35:52.465Z,14.52
2022-10-18T04:37:54.436Z,14.50
2022-10-18T04:38:55.610Z,14.50
2022-10-18T04:39:55.606Z,14.47
2022-10-18T04:40:55.734Z,14.47
2022-10-18T04:41:55.823Z,14.49
2022-10-18T04:42:55.859Z,14.50
2022-10-18T04:43:55.989Z,14.50
2022-10-18T04:44:56.069Z,14.50
2022-10-18T04:45:56.261Z,14.52
2022-10-18T04:46:56.198Z,14.54
2022-10-18T04:47:56.273Z,14.54
2022-10-18T04:48:56.351Z,14.53
2022-10-18T04:49:56.444Z,14.56
2022-10-18T04:50:56.604Z,14.56
2022-10-18T04:51:57.638Z,14.54
2022-10-18T04:52:56.733Z,14.57
2022-10-18T04:53:56.795Z,14.57
2022-10-18T04:54:56.844Z,14.57
2022-10-18T04:55:56.930Z,14.57
2022-10-18T04:57:05.288Z,14.57
2022-10-18T04:57:57.216Z,14.60
2022-10-18T04:58:57.187Z,14.61
2022-10-18T04:59:57.282Z,14.60
2022-10-18T05:00:57.363Z,14.60
2022-10-18T05:01:57.591Z,14.60
2022-10-18T05:03:01.477Z,14.61
2022-10-18T05:03:57.670Z,14.60
2022-10-18T05:04:57.706Z,14.60
2022-10-18T05:06:02.705Z,14.61
2022-10-18T05:06:57.886Z,14.61
2022-10-18T05:07:57.984Z,14.61
2022-10-18T05:08:58.042Z,14.61
2022-10-18T05:10:09.157Z,14.61
2022-10-18T05:10:58.325Z,14.61
2022-10-18T05:11:58.306Z,14.61
2022-10-18T05:12:58.406Z,14.60
2022-10-18T05:13:58.507Z,14.57
2022-10-18T05:14:58.568Z,14.57
2022-10-18T05:15:58.699Z,14.56
2022-10-18T05:16:58.727Z,14.57
2022-10-18T05:17:58.811Z,14.56
2022-10-18T05:18:58.909Z,14.56
2022-10-18T05:19:59.006Z,14.56
2022-10-18T05:20:59.080Z,14.56
2022-10-18T05:22:00.345Z,14.54
2022-10-18T05:22:59.257Z,14.54
2022-10-18T05:23:59.364Z,14.53
2022-10-18T05:25:00.876Z,14.54
2022-10-18T05:25:59.493Z,14.52
2022-10-18T05:26:59.567Z,14.52
2022-10-18T05:28:03.444Z,14.50
2022-10-18T05:28:59.820Z,14.50
2022-10-18T05:30:01.383Z,14.49
2022-10-18T05:30:59.906Z,14.47
2022-10-18T05:32:00.000Z,14.46
2022-10-18T05:33:00.086Z,14.44
2022-10-18T05:34:00.167Z,14.44
2022-10-18T05:35:00.240Z,14.46
2022-10-18T05:36:00.318Z,14.44
2022-10-18T05:37:00.411Z,14.43
2022-10-18T05:38:00.486Z,14.43
2022-10-18T05:39:04.036Z,14.43
2022-10-18T05:40:00.662Z,14.42
2022-10-18T05:41:00.743Z,14.39
2022-10-18T05:42:00.820Z,14.39
2022-10-18T05:43:00.903Z,14.38
2022-10-18T05:44:01.007Z,14.38
2022-10-18T05:45:01.036Z,14.35
2022-10-18T05:46:01.132Z,14.35
2022-10-18T05:47:01.208Z,14.34
2022-10-18T05:48:01.294Z,14.32
2022-10-18T05:49:01.376Z,14.34
2022-10-18T05:50:01.510Z,14.34
2022-10-18T05:51:01.548Z,14.34
2022-10-18T05:52:01.630Z,14.32
2022-10-18T05:53:12.094Z,14.31
2022-10-18T05:54:01.825Z,14.31
2022-10-18T05:55:01.883Z,14.31
2022-10-18T05:56:01.934Z,14.32
2022-10-18T05:57:02.018Z,14.32
2022-10-18T05:58:02.093Z,14.34
2022-10-18T05:59:02.188Z,14.34
2022-10-18T06:00:02.289Z,14.34
2022-10-18T06:01:02.357Z,14.37
2022-10-18T06:02:02.434Z,14.35
2022-10-18T06:03:02.515Z,14.38
2022-10-18T06:04:02.597Z,14.38
2022-10-18T06:05:02.701Z,14.38
2022-10-18T06:06:02.761Z,14.39
2022-10-18T06:07:02.834Z,14.39
2022-10-18T06:08:05.278Z,14.42
2022-10-18T06:09:03.005Z,14.42
2022-10-18T06:10:03.116Z,14.42
2022-10-18T06:11:03.175Z,14.43
2022-10-18T06:12:03.231Z,14.43
2022-10-18T06:13:03.322Z,14.44
2022-10-18T06:14:03.407Z,14.44
2022-10-18T06:15:03.512Z,14.44
2022-10-18T06:16:03.557Z,14.46
2022-10-18T06:17:03.634Z,14.47
2022-10-18T06:18:03.906Z,14.47
2022-10-18T06:19:03.793Z,14.50
2022-10-18T06:20:04.012Z,14.50
2022-10-18T06:21:03.970Z,14.50
2022-10-18T06:22:04.048Z,14.52
2022-10-18T06:23:04.127Z,14.52
2022-10-18T06:24:04.238Z,14.52
2022-10-18T06:25:04.316Z,14.53
2022-10-18T06:26:04.394Z,14.53
2022-10-18T06:28:05.975Z,14.53
2022-10-18T06:29:04.725Z,14.53
2022-10-18T06:30:04.745Z,14.52
2022-10-18T06:31:04.769Z,14.52
2022-10-18T06:32:04.850Z,14.50
2022-10-18T06:33:04.930Z,14.52
2022-10-18T06:34:05.015Z,14.50
2022-10-18T06:35:05.144Z,14.52
2022-10-18T06:36:05.207Z,14.52
2022-10-18T06:37:05.293Z,14.52
2022-10-18T06:38:05.375Z,14.53
2022-10-18T06:39:05.486Z,14.53
2022-10-18T06:40:05.551Z,14.53
2022-10-18T06:41:05.615Z,14.53
2022-10-18T06:42:05.705Z,14.54
2022-10-18T06:43:19.542Z,14.53
2022-10-18T06:44:05.868Z,14.54
2022-10-18T06:45:05.964Z,14.56
2022-10-18T06:46:06.015Z,14.57
2022-10-18T06:47:06.113Z,14.60
2022-10-18T06:48:06.185Z,14.60
2022-10-18T06:49:06.228Z,14.60
2022-10-18T06:50:06.333Z,14.61
2022-10-18T06:51:06.414Z,14.61
2022-10-18T06:52:06.497Z,14.61
2022-10-18T06:53:06.603Z,14.64
2022-10-18T06:54:17.639Z,14.64
2022-10-18T06:55:09.137Z,14.62
2022-10-18T06:56:06.795Z,14.65
2022-10-18T06:57:06.881Z,14.65
2022-10-18T06:58:06.963Z,14.65
2022-10-18T06:59:07.053Z,14.67
2022-10-18T07:00:07.156Z,14.65
2022-10-18T07:01:07.195Z,14.65
2022-10-18T07:02:07.351Z,14.68
2022-10-18T07:03:07.350Z,14.69
2022-10-18T07:04:07.431Z,14.69
2022-10-18T07:05:07.532Z,14.69
2022-10-18T07:06:07.619Z,14.72
2022-10-18T07:07:07.701Z,14.72
2022-10-18T07:08:07.775Z,14.75
2022-10-18T07:09:07.876Z,14.78
2022-10-18T07:10:09.273Z,14.80
2022-10-18T07:11:08.053Z,14.81
2022-10-18T07:12:08.148Z,14.83
2022-10-18T07:13:30.771Z,14.86
2022-10-18T07:14:08.837Z,14.86
2022-10-18T07:15:09.517Z,14.87
2022-10-18T07:16:09.791Z,14.88
2022-10-18T07:17:08.535Z,14.90
2022-10-18T07:18:08.638Z,14.91
2022-10-18T07:19:08.723Z,14.91
2022-10-18T07:20:08.870Z,14.93
2022-10-18T07:21:08.905Z,14.93
2022-10-18T07:22:08.971Z,14.91
2022-10-18T07:23:09.060Z,14.95
2022-10-18T07:24:09.148Z,14.95
2022-10-18T07:25:09.281Z,14.98
2022-10-18T07:26:09.312Z,14.99
2022-10-18T07:27:09.385Z,15.01
2022-10-18T07:28:09.478Z,15.01
2022-10-18T07:29:09.672Z,15.03
2022-10-18T07:30:09.685Z,15.05
2022-10-18T07:31:09.709Z,15.06
2022-10-18T07:32:09.804Z,15.06
2022-10-18T07:33:09.880Z,15.08
2022-10-18T07:34:09.966Z,15.09
2022-10-18T07:36:10.156Z,15.13
2022-10-18T07:37:10.249Z,15.15
2022-10-18T07:38:10.334Z,15.15
2022-10-18T07:39:10.425Z,15.20
2022-10-18T07:40:10.501Z,15.23
2022-10-18T07:41:10.547Z,15.21
2022-10-18T07:42:10.637Z,15.26
2022-10-18T07:43:12.319Z,15.26
2022-10-18T07:44:10.841Z,15.28
2022-10-18T07:45:10.916Z,15.28
2022-10-18T07:46:10.976Z,15.27
2022-10-18T07:47:11.056Z,15.28
2022-10-18T07:48:11.190Z,15.30
2022-10-18T07:49:11.222Z,15.31
2022-10-18T07:50:11.320Z,15.31
2022-10-18T07:51:11.394Z,15.35
2022-10-18T07:52:11.520Z,15.35
2022-10-18T07:53:11.558Z,15.38
2022-10-18T07:54:11.646Z,15.39
2022-10-18T07:55:11.747Z,15.39
2022-10-18T07:56:11.798Z,15.39
2022-10-18T07:57:11.906Z,15.39
2022-10-18T07:58:11.979Z,15.41
2022-10-18T07:59:12.060Z,15.41
2022-10-18T08:00:12.156Z,15.41
2022-10-18T08:01:12.306Z,15.42
2022-10-18T08:02:12.309Z,15.42
2022-10-18T08:03:12.390Z,15.43
2022-10-18T08:04:16.252Z,15.43
2022-10-18T08:05:12.572Z,15.46
2022-10-18T08:06:12.620Z,15.45
2022-10-18T08:07:12.705Z,15.46
2022-10-18T08:08:12.820Z,15.49
2022-10-18T08:09:12.866Z,15.49
2022-10-18T08:10:13.000Z,15.51
2022-10-18T08:11:13.053Z,15.51
2022-10-18T08:12:13.142Z,15.52
2022-10-18T08:13:13.256Z,15.54
2022-10-18T08:14:13.300Z,15.54
2022-10-18T08:15:13.425Z,15.56
2022-10-18T08:16:13.466Z,15.56
2022-10-18T08:17:13.541Z,15.57
2022-10-18T08:18:13.622Z,15.57
2022-10-18T08:19:13.703Z,15.56
2022-10-18T08:20:29.954Z,15.57
2022-10-18T08:21:13.895Z,15.59
2022-10-18T08:22:13.987Z,15.57
2022-10-18T08:23:14.076Z,15.59
2022-10-18T08:24:14.155Z,15.60
2022-10-18T08:25:14.256Z,15.61
2022-10-18T08:26:14.343Z,15.61
2022-10-18T08:27:14.440Z,15.64
2022-10-18T08:28:14.517Z,15.66
2022-10-18T08:29:24.086Z,15.63
2022-10-18T08:30:14.694Z,15.66
2022-10-18T08:31:14.776Z,15.66
2022-10-18T08:32:14.862Z,15.66
2022-10-18T08:33:14.956Z,15.70
2022-10-18T08:34:19.530Z,15.67
2022-10-18T08:35:15.126Z,15.68
2022-10-18T08:36:15.228Z,15.67
2022-10-18T08:37:15.313Z,15.67
2022-10-18T08:38:18.188Z,15.68
2022-10-18T08:39:15.467Z,15.70
2022-10-18T08:40:15.580Z,15.68
2022-10-18T08:41:15.621Z,15.68
2022-10-18T08:42:15.704Z,15.70
2022-10-18T08:43:20.706Z,15.72
2022-10-18T08:44:15.859Z,15.72
2022-10-18T08:45:30.015Z,15.74
2022-10-18T08:46:16.038Z,15.75
2022-10-18T08:47:16.122Z,15.76
2022-10-18T08:48:16.201Z,15.79
2022-10-18T08:49:16.283Z,15.82
2022-10-18T08:50:16.384Z,15.86
2022-10-18T08:51:16.492Z,15.89
2022-10-18T08:52:16.547Z,15.93
2022-10-18T08:53:16.631Z,15.96
2022-10-18T08:54:16.719Z,15.96
2022-10-18T08:55:16.818Z,16.00
2022-10-18T08:56:16.904Z,16.03
2022-10-18T08:57:16.984Z,16.04
2022-10-18T08:58:17.071Z,16.04
2022-10-18T08:59:17.165Z,16.06
2022-10-18T09:00:17.282Z,16.06
2022-10-18T09:01:17.339Z,16.04
2022-10-18T09:02:17.511Z,16.06
2022-10-18T09:03:17.549Z,16.07
2022-10-18T09:04:17.565Z,16.07
2022-10-18T09:05:17.664Z,16.09
2022-10-18T09:06:21.161Z,16.09
2022-10-18T09:07:17.828Z,16.11
2022-10-18T09:08:17.917Z,16.12
2022-10-18T09:09:18.000Z,16.14
2022-10-18T09:10:18.199Z,16.14
2022-10-18T09:11:18.195Z,16.14
2022-10-18T09:12:18.279Z,16.16
2022-10-18T09:13:18.363Z,16.18
2022-10-18T09:14:18.464Z,16.16
2022-10-18T09:15:18.534Z,16.18
2022-10-18T09:16:18.578Z,16.18
2022-10-18T09:17:18.661Z,16.20
2022-10-18T09:18:18.753Z,16.20
2022-10-18T09:19:18.847Z,16.20
2022-10-18T09:20:18.983Z,16.20
2022-10-18T09:21:19.045Z,16.20
2022-10-18T09:22:19.087Z,16.22
2022-10-18T09:23:19.191Z,16.23
2022-10-18T09:24:19.245Z,16.25
2022-10-18T09:25:19.344Z,16.27
2022-10-18T09:26:19.527Z,16.31
2022-10-18T09:27:28.547Z,16.31
2022-10-18T09:28:19.548Z,16.31
2022-10-18T09:30:19.724Z,16.35
2022-10-18T09:31:19.880Z,16.37
2022-10-18T09:32:19.897Z,16.41
2022-10-18T09:33:19.976Z,16.45
2022-10-18T09:34:20.061Z,16.50
2022-10-18T09:35:20.157Z,16.53
2022-10-18T09:36:20.210Z,16.56
2022-10-18T09:37:20.293Z,16.58
2022-10-18T09:38:20.411Z,16.59
2022-10-18T09:39:20.485Z,16.62
2022-10-18T09:40:20.622Z,16.67
2022-10-18T09:41:20.601Z,16.73
2022-10-18T09:42:20.675Z,16.78
2022-10-18T09:43:20.742Z,16.88
2022-10-18T09:44:20.823Z,16.92
2022-10-18T09:45:20.937Z,16.98
2022-10-18T09:46:21.005Z,17.03
2022-10-18T09:47:21.128Z,17.06
2022-10-18T09:48:21.147Z,17.08
2022-10-18T09:49:21.223Z,17.11
2022-10-18T09:50:21.325Z,17.17
2022-10-18T09:51:21.379Z,17.23
2022-10-18T09:52:21.451Z,17.28
2022-10-18T09:53:21.547Z,17.29
2022-10-18T09:54:21.585Z,17.29
2022-10-18T09:55:21.693Z,17.30
2022-10-18T09:56:21.726Z,17.32
2022-10-18T09:57:21.806Z,17.33
2022-10-18T09:58:21.875Z,17.35
2022-10-18T09:59:21.974Z,17.35
2022-10-18T10:00:22.066Z,17.40
2022-10-18T10:01:22.152Z,17.41
2022-10-18T10:02:22.479Z,17.44
2022-10-18T10:03:22.291Z,17.46
2022-10-18T10:04:22.371Z,17.50
2022-10-18T10:05:22.566Z,17.51
2022-10-18T10:06:22.538Z,17.57
2022-10-18T10:07:22.623Z,17.59
2022-10-18T10:08:22.691Z,17.62
2022-10-18T10:09:22.767Z,17.63
2022-10-18T10:10:22.869Z,17.64
2022-10-18T10:11:22.908Z,17.66
2022-10-18T10:12:22.984Z,17.67
2022-10-18T10:13:23.293Z,17.70
2022-10-18T10:14:23.128Z,17.71
2022-10-18T10:15:23.241Z,17.73
2022-10-18T10:16:23.323Z,17.74
2022-10-18T10:17:23.407Z,17.78
2022-10-18T10:18:23.494Z,17.82
2022-10-18T10:19:23.574Z,17.89
2022-10-18T10:20:23.673Z,17.94
2022-10-18T10:21:23.772Z,18.00
2022-10-18T10:22:23.810Z,18.04
2022-10-18T10:23:23.891Z,18.09
2022-10-18T10:24:26.171Z,18.13
2022-10-18T10:25:24.090Z,18.21
2022-10-18T10:26:24.127Z,18.25
2022-10-18T10:27:24.231Z,18.37
2022-10-18T10:28:24.379Z,18.44
2022-10-18T10:29:43.556Z,18.54
2022-10-18T10:30:24.480Z,18.64
2022-10-18T10:31:24.540Z,18.73
2022-10-18T10:32:24.742Z,18.84
2022-10-18T10:33:24.710Z,18.92
2022-10-18T10:34:24.802Z,19.01
2022-10-18T10:35:41.326Z,19.11
2022-10-18T10:36:24.978Z,19.20
2022-10-18T10:37:25.056Z,19.29
2022-10-18T10:38:25.171Z,19.38
2022-10-18T10:39:25.217Z,19.43
2022-10-18T10:40:28.490Z,19.50
2022-10-18T10:41:25.446Z,19.55
2022-10-18T10:42:25.450Z,19.63
2022-10-18T10:43:37.593Z,19.68
2022-10-18T10:44:25.731Z,19.73
2022-10-18T10:45:25.707Z,19.79
2022-10-18T10:46:25.814Z,19.83
2022-10-18T10:47:25.834Z,19.88
2022-10-18T10:48:29.843Z,19.91
2022-10-18T10:49:41.610Z,19.97
2022-10-18T10:50:26.789Z,20.06
2022-10-18T10:51:26.139Z,20.12
2022-10-18T10:52:27.833Z,20.18
2022-10-18T10:53:26.306Z,20.23
2022-10-18T10:54:26.396Z,20.27
2022-10-18T10:55:34.966Z,20.31
2022-10-18T10:56:26.545Z,20.38
2022-10-18T10:57:26.616Z,20.41
2022-10-18T10:58:26.727Z,20.43
2022-10-18T10:59:26.788Z,20.46
2022-10-18T11:00:26.945Z,20.46
2022-10-18T11:01:27.013Z,20.43
2022-10-18T11:02:27.030Z,20.41
2022-10-18T11:03:29.798Z,20.34
2022-10-18T11:04:27.212Z,20.31
2022-10-18T11:05:27.320Z,20.27
2022-10-18T11:06:27.378Z,20.24
2022-10-18T11:07:27.431Z,20.23
2022-10-18T11:08:27.519Z,20.20
2022-10-18T11:09:27.571Z,20.18
2022-10-18T11:10:27.657Z,20.16
2022-10-18T11:11:27.751Z,20.15
2022-10-18T11:12:27.824Z,20.13
2022-10-18T11:13:27.916Z,20.12
2022-10-18T11:14:28.006Z,20.13
2022-10-18T11:15:28.124Z,20.15
2022-10-18T11:16:28.188Z,20.16
2022-10-18T11:17:28.289Z,20.15
2022-10-18T11:18:28.335Z,20.12
2022-10-18T11:19:28.554Z,20.12
2022-10-18T11:20:28.564Z,20.13
2022-10-18T11:21:28.587Z,20.15
2022-10-18T11:22:28.680Z,20.18
2022-10-18T11:23:28.767Z,20.23
2022-10-18T11:24:28.831Z,20.28
2022-10-18T11:25:28.892Z,20.33
2022-10-18T11:26:28.974Z,20.38
2022-10-18T11:27:29.067Z,20.47
2022-10-18T11:28:29.189Z,20.53
2022-10-18T11:29:29.246Z,20.59
2022-10-18T11:30:29.379Z,20.65
2022-10-18T11:31:29.416Z,20.71
2022-10-18T11:32:29.924Z,20.77
2022-10-18T11:33:50.070Z,20.83
2022-10-18T11:34:29.664Z,20.86
2022-10-18T11:35:29.768Z,20.89
2022-10-18T11:36:31.230Z,20.95
2022-10-18T11:37:33.271Z,20.99
2022-10-18T11:38:29.960Z,21.01
2022-10-18T11:39:30.068Z,21.04
2022-10-18T11:40:30.127Z,21.06
2022-10-18T11:41:30.216Z,21.06
2022-10-18T11:42:30.267Z,21.08
2022-10-18T11:43:44.528Z,21.09
2022-10-18T11:44:30.494Z,21.09
2022-10-18T11:46:30.625Z,21.11
2022-10-18T11:47:30.957Z,21.14
2022-10-18T11:48:30.848Z,21.16
2022-10-18T11:49:30.887Z,21.16
2022-10-18T11:50:30.979Z,21.17
2022-10-18T11:51:38.834Z,21.19
2022-10-18T11:52:31.186Z,21.20
2022-10-18T11:53:31.229Z,21.23
2022-10-18T11:54:31.368Z,21.24
2022-10-18T11:55:33.095Z,21.26
2022-10-18T11:56:31.462Z,21.29
2022-10-18T11:57:31.947Z,21.32
2022-10-18T11:58:31.608Z,21.32
2022-10-18T11:59:31.696Z,21.34
2022-10-18T12:00:31.807Z,21.34
2022-10-18T12:01:31.873Z,21.34
2022-10-18T12:02:32.532Z,21.34
2022-10-18T12:03:32.045Z,21.35
2022-10-18T12:04:32.255Z,21.35
2022-10-18T12:05:32.207Z,21.38
2022-10-18T12:06:32.275Z,21.38
2022-10-18T12:07:32.617Z,21.36
2022-10-18T12:08:32.452Z,21.38
2022-10-18T12:09:32.530Z,21.36
2022-10-18T12:10:44.360Z,21.35
2022-10-18T12:11:32.743Z,21.34
2022-10-18T12:12:33.286Z,21.30
2022-10-18T12:13:32.878Z,21.30
2022-10-18T12:14:32.996Z,21.29
2022-10-18T12:15:33.054Z,21.30
2022-10-18T12:16:50.517Z,21.30
2022-10-18T12:17:46.079Z,21.30
2022-10-18T12:18:33.325Z,21.32
2022-10-18T12:19:33.416Z,21.34
2022-10-18T12:20:33.563Z,21.34
2022-10-18T12:21:33.607Z,21.34
2022-10-18T12:22:33.877Z,21.34
2022-10-18T12:23:33.757Z,21.34
2022-10-18T12:24:33.864Z,21.36
2022-10-18T12:25:33.942Z,21.39
2022-10-18T12:26:33.986Z,21.41
2022-10-18T12:27:34.091Z,21.44
2022-10-18T12:28:34.217Z,21.45
2022-10-18T12:29:34.196Z,21.48
2022-10-18T12:30:34.318Z,21.50
2022-10-18T12:31:34.410Z,21.50
2022-10-18T12:32:34.808Z,21.51
2022-10-18T12:33:34.541Z,21.51
2022-10-18T12:34:34.595Z,21.53
2022-10-18T12:35:34.701Z,21.54
2022-10-18T12:36:34.806Z,21.56
2022-10-18T12:37:35.160Z,21.59
2022-10-18T12:38:34.899Z,21.59
2022-10-18T12:39:43.428Z,21.60
2022-10-18T12:40:35.138Z,21.61
2022-10-18T12:41:35.158Z,21.60
2022-10-18T12:42:35.230Z,21.63
2022-10-18T12:43:35.329Z,21.64
2022-10-18T12:44:35.466Z,21.64
2022-10-18T12:45:35.547Z,21.67
2022-10-18T12:46:35.586Z,21.69
2022-10-18T12:47:35.832Z,21.72
2022-10-18T12:48:35.838Z,21.74
2022-10-18T12:49:37.311Z,21.78
2022-10-18T12:50:35.940Z,21.78
2022-10-18T12:51:36.001Z,21.82
2022-10-18T12:52:36.107Z,21.83
2022-10-18T12:53:36.270Z,21.85
2022-10-18T12:54:36.270Z,21.90
2022-10-18T12:55:36.345Z,21.88
2022-10-18T12:56:36.447Z,21.91
2022-10-18T12:57:36.484Z,21.92
2022-10-18T12:58:36.589Z,21.91
2022-10-18T12:59:36.720Z,21.92
2022-10-18T13:00:36.743Z,21.94
2022-10-18T13:01:36.957Z,21.97
2022-10-18T13:02:37.221Z,21.99